createdAt,value
2023-03-28T00:01:04.634Z,76.30
2023-03-28T00:03:35.672Z,76.40
2023-03-28T00:06:05.537Z,76.20
2023-03-28T00:08:32.547Z,76.40
2023-03-28T00:11:18.860Z,76.70
2023-03-28T00:14:00.827Z,76.90
2023-03-28T00:16:32.579Z,76.80
2023-03-28T00:19:02.280Z,77.00
2023-03-28T00:21:35.385Z,77.40
2023-03-28T00:24:05.521Z,77.40
2023-03-28T00:26:35.413Z,77.50
2023-03-28T00:29:04.793Z,77.50
2023-03-28T00:31:32.376Z,77.40
2023-03-28T00:33:59.114Z,77.10
2023-03-28T00:36:29.175Z,77.00
2023-03-28T00:38:57.942Z,77.10
2023-03-28T00:41:26.671Z,77.30
2023-03-28T00:43:54.930Z,77.10
2023-03-28T00:46:36.245Z,77.20
2023-03-28T00:49:21.205Z,77.00
2023-03-28T00:51:53.647Z,77.10
2023-03-28T00:54:20.857Z,77.00
2023-03-28T00:56:52.296Z,77.10
2023-03-28T00:59:23.533Z,77.60
2023-03-28T01:01:50.783Z,77.90
2023-03-28T01:04:20.658Z,79.00
2023-03-28T01:06:54.464Z,77.70
2023-03-28T01:09:21.761Z,77.70
2023-03-28T01:11:49.635Z,77.60
2023-03-28T01:14:20.554Z,77.70
2023-03-28T01:16:47.914Z,77.80
2023-03-28T01:19:38.475Z,77.60
2023-03-28T01:22:43.885Z,77.70
2023-03-28T01:26:00.448Z,77.60
2023-03-28T01:28:38.238Z,78.20
2023-03-28T01:31:27.444Z,78.40
2023-03-28T01:34:24.763Z,78.20
2023-03-28T01:36:57.439Z,78.20
2023-03-28T01:39:48.955Z,78.30
2023-03-28T01:42:40.164Z,78.40
2023-03-28T01:45:17.925Z,78.70
2023-03-28T01:47:54.102Z,78.50
2023-03-28T01:50:33.975Z,78.80
2023-03-28T01:53:29.840Z,78.90
2023-03-28T01:56:07.860Z,79.00
2023-03-28T01:59:00.730Z,78.70
2023-03-28T02:01:45.275Z,78.60
2023-03-28T02:04:21.493Z,78.60
2023-03-28T02:06:50.019Z,78.30
2023-03-28T02:09:19.494Z,78.50
2023-03-28T02:11:50.254Z,78.20
2023-03-28T02:14:21.387Z,78.20
2023-03-28T02:16:52.225Z,78.50
2023-03-28T02:19:22.263Z,78.70
2023-03-28T02:21:58.449Z,78.70
2023-03-28T02:24:25.881Z,78.70
2023-03-28T02:26:54.448Z,78.30
2023-03-28T02:29:21.339Z,78.40
2023-03-28T02:31:48.287Z,78.70
2023-03-28T02:34:14.989Z,78.90
2023-03-28T02:36:53.520Z,78.80
2023-03-28T02:39:46.604Z,78.80
2023-03-28T02:42:34.163Z,78.90
2023-03-28T02:45:37.051Z,78.80
2023-03-28T02:48:27.455Z,78.70
2023-03-28T02:51:23.738Z,78.50
2023-03-28T02:53:55.641Z,78.50
2023-03-28T02:56:39.571Z,78.60
2023-03-28T02:59:16.508Z,78.60
2023-03-28T03:01:44.788Z,78.80
2023-03-28T03:04:13.553Z,79.20
2023-03-28T03:06:40.313Z,79.30
2023-03-28T03:09:08.165Z,79.30
2023-03-28T03:11:34.869Z,79.20
2023-03-28T03:14:01.623Z,79.00
2023-03-28T03:16:31.275Z,79.10
2023-03-28T03:18:57.970Z,79.40
2023-03-28T03:21:26.110Z,79.70
2023-03-28T03:23:52.906Z,79.90
2023-03-28T03:26:19.691Z,79.50
2023-03-28T03:28:46.366Z,79.10
2023-03-28T03:31:13.319Z,79.10
2023-03-28T03:33:41.587Z,79.70
2023-03-28T03:36:09.984Z,79.90
2023-03-28T03:38:36.691Z,79.90
2023-03-28T03:41:03.412Z,80.00
2023-03-28T03:43:30.145Z,79.60
2023-03-28T03:45:57.746Z,79.80
2023-03-28T03:48:25.195Z,79.90
2023-03-28T03:50:51.900Z,79.70
2023-03-28T03:53:18.634Z,79.50
2023-03-28T03:55:45.200Z,79.60
2023-03-28T03:58:12.090Z,79.70
2023-03-28T04:00:39.668Z,80.00
2023-03-28T04:03:06.358Z,79.70
2023-03-28T04:05:33.085Z,79.80
2023-03-28T04:08:01.445Z,79.90
2023-03-28T04:10:28.168Z,80.10
2023-03-28T04:12:54.858Z,79.90
2023-03-28T04:15:21.572Z,79.60
2023-03-28T04:17:50.177Z,79.60
2023-03-28T04:20:17.408Z,79.90
2023-03-28T04:22:46.271Z,79.90
2023-03-28T04:25:13.994Z,79.80
2023-03-28T04:27:47.115Z,79.80
2023-03-28T04:30:17.904Z,79.80
2023-03-28T04:32:49.370Z,79.80
2023-03-28T04:35:16.622Z,79.40
2023-03-28T04:37:43.779Z,79.80
2023-03-28T04:40:10.675Z,80.00
2023-03-28T04:42:38.361Z,80.80
2023-03-28T04:45:06.299Z,79.70
2023-03-28T04:47:33.214Z,80.10
2023-03-28T04:50:00.097Z,80.10
2023-03-28T04:52:26.868Z,79.70
2023-03-28T04:54:53.532Z,80.00
2023-03-28T04:57:20.237Z,80.00
2023-03-28T04:59:46.920Z,80.10
2023-03-28T05:02:13.600Z,80.00
2023-03-28T05:04:40.550Z,79.70
2023-03-28T05:07:07.461Z,79.60
2023-03-28T05:09:34.171Z,79.90
2023-03-28T05:12:00.843Z,79.70
2023-03-28T05:14:27.580Z,79.80
2023-03-28T05:16:54.256Z,80.00
2023-03-28T05:19:21.795Z,79.90
2023-03-28T05:21:48.663Z,80.00
2023-03-28T05:24:15.358Z,80.10
2023-03-28T05:26:42.141Z,80.20
2023-03-28T05:29:08.766Z,80.30
2023-03-28T05:31:35.364Z,80.10
2023-03-28T05:34:02.060Z,80.30
2023-03-28T05:36:30.103Z,80.30
2023-03-28T05:38:56.736Z,80.10
2023-03-28T05:41:23.385Z,80.00
2023-03-28T05:43:50.075Z,80.00
2023-03-28T05:46:16.841Z,80.20
2023-03-28T05:48:43.497Z,80.20
2023-03-28T05:51:17.014Z,80.10
2023-03-28T05:53:43.729Z,79.90
2023-03-28T05:56:10.698Z,80.20
2023-03-28T05:58:37.349Z,80.30
2023-03-28T06:01:04.496Z,80.30
2023-03-28T06:03:32.010Z,80.20
2023-03-28T06:05:59.100Z,80.40
2023-03-28T06:08:26.955Z,80.30
2023-03-28T06:10:53.663Z,80.40
2023-03-28T06:13:20.606Z,80.20
2023-03-28T06:15:47.301Z,80.60
2023-03-28T06:18:14.005Z,80.50
2023-03-28T06:20:40.745Z,80.50
2023-03-28T06:23:07.425Z,80.40
2023-03-28T06:25:34.055Z,80.30
2023-03-28T06:28:00.705Z,80.50
2023-03-28T06:30:27.612Z,80.70
2023-03-28T06:32:54.317Z,80.90
2023-03-28T06:35:21.197Z,80.70
2023-03-28T06:37:47.867Z,81.00
2023-03-28T06:40:14.628Z,81.00
2023-03-28T06:42:41.500Z,81.20
2023-03-28T06:45:08.789Z,81.20
2023-03-28T06:47:35.580Z,81.30
2023-03-28T06:50:02.256Z,81.20
2023-03-28T06:52:28.938Z,81.20
2023-03-28T06:54:55.936Z,80.70
2023-03-28T06:57:22.553Z,80.80
2023-03-28T06:59:49.238Z,80.90
2023-03-28T07:02:15.872Z,80.70
2023-03-28T07:04:42.565Z,80.70
2023-03-28T07:07:09.640Z,80.70
2023-03-28T07:09:37.222Z,80.90
2023-03-28T07:12:04.597Z,80.80
2023-03-28T07:14:31.265Z,81.20
2023-03-28T07:16:57.941Z,81.40
2023-03-28T07:19:25.011Z,81.70
2023-03-28T07:21:53.042Z,81.60
2023-03-28T07:24:20.088Z,81.70
2023-03-28T07:26:46.951Z,81.50
2023-03-28T07:29:13.561Z,81.30
2023-03-28T07:31:40.280Z,81.20
2023-03-28T07:34:07.005Z,81.10
2023-03-28T07:36:33.644Z,81.00
2023-03-28T07:39:00.560Z,80.20
2023-03-28T07:41:27.226Z,80.70
2023-03-28T07:43:53.845Z,81.00
2023-03-28T07:46:21.161Z,80.80
2023-03-28T07:48:47.931Z,80.60
2023-03-28T07:51:14.765Z,81.00
2023-03-28T07:53:42.013Z,81.20
2023-03-28T07:56:12.940Z,81.00
2023-03-28T07:58:41.246Z,80.90
2023-03-28T08:01:12.026Z,81.10
2023-03-28T08:03:39.426Z,80.80
2023-03-28T08:06:20.057Z,80.60
2023-03-28T08:08:51.912Z,80.50
2023-03-28T08:11:18.688Z,80.30
2023-03-28T08:13:45.506Z,79.50
2023-03-28T08:16:12.190Z,78.20
2023-03-28T08:18:39.001Z,78.50
2023-03-28T08:21:06.105Z,77.30
2023-03-28T08:23:32.768Z,77.80
2023-03-28T08:26:04.939Z,77.20
2023-03-28T08:28:36.146Z,77.00
2023-03-28T08:31:14.279Z,76.00
2023-03-28T08:33:42.938Z,76.70
2023-03-28T08:36:15.005Z,76.40
2023-03-28T08:38:43.099Z,75.90
2023-03-28T08:41:38.728Z,75.00
2023-03-28T08:44:14.538Z,73.00
2023-03-28T08:46:44.300Z,72.70
2023-03-28T08:49:18.409Z,68.40
2023-03-28T08:52:05.696Z,72.80
2023-03-28T08:54:45.301Z,70.00
2023-03-28T08:57:24.899Z,71.00
2023-03-28T09:00:13.011Z,71.00
2023-03-28T09:02:40.076Z,70.20
2023-03-28T09:08:20.400Z,65.20
2023-03-28T09:11:05.506Z,65.90
2023-03-28T09:13:54.634Z,64.40
2023-03-28T09:16:33.301Z,65.30
2023-03-28T09:19:21.052Z,64.70
2023-03-28T09:22:14.696Z,64.60
2023-03-28T09:24:48.669Z,63.60
2023-03-28T09:27:18.687Z,61.40
2023-03-28T09:29:47.089Z,62.80
2023-03-28T09:32:28.659Z,63.70
2023-03-28T09:34:55.842Z,64.00
2023-03-28T09:37:35.425Z,60.60
2023-03-28T09:40:18.467Z,61.00
2023-03-28T09:42:52.447Z,57.80
2023-03-28T09:46:01.032Z,58.40
2023-03-28T09:48:30.646Z,56.00
2023-03-28T09:50:59.073Z,58.80
2023-03-28T09:53:33.165Z,59.90
2023-03-28T09:56:22.760Z,58.90
2023-03-28T09:58:52.761Z,59.60
2023-03-28T10:01:34.216Z,59.80
2023-03-28T10:04:01.313Z,57.60
2023-03-28T10:06:31.442Z,60.00
2023-03-28T10:09:23.254Z,58.70
2023-03-28T10:11:56.545Z,55.50
2023-03-28T10:14:41.287Z,57.70
2023-03-28T10:17:37.926Z,56.70
2023-03-28T10:20:19.700Z,59.00
2023-03-28T10:22:50.303Z,58.60
2023-03-28T10:25:35.291Z,57.70
2023-03-28T10:28:04.660Z,54.30
2023-03-28T10:30:33.313Z,55.40
2023-03-28T10:33:18.235Z,56.70
2023-03-28T10:36:02.700Z,56.30
2023-03-28T10:38:44.208Z,55.50
2023-03-28T10:41:18.904Z,53.40
2023-03-28T10:43:45.545Z,54.90
2023-03-28T10:46:29.301Z,56.60
2023-03-28T10:49:12.275Z,56.30
2023-03-28T10:51:41.523Z,54.50
2023-03-28T10:54:30.001Z,55.10
2023-03-28T10:57:16.926Z,53.00
2023-03-28T11:00:10.678Z,52.00
2023-03-28T11:02:46.306Z,52.40
2023-03-28T11:05:25.789Z,52.30
2023-03-28T11:08:05.839Z,50.80
2023-03-28T11:10:38.468Z,50.80
2023-03-28T11:13:22.419Z,51.40
2023-03-28T11:16:16.733Z,49.80
2023-03-28T11:18:52.371Z,47.70
2023-03-28T11:21:43.057Z,46.60
2023-03-28T11:24:21.749Z,48.40
2023-03-28T11:27:08.566Z,49.80
2023-03-28T11:29:49.158Z,50.50
2023-03-28T11:32:48.827Z,50.80
2023-03-28T11:35:33.902Z,50.30
2023-03-28T11:38:17.723Z,50.20
2023-03-28T11:41:02.647Z,50.20
2023-03-28T11:43:32.965Z,50.00
2023-03-28T11:46:14.936Z,49.70
2023-03-28T11:48:55.481Z,49.90
2023-03-28T11:51:46.953Z,50.10
2023-03-28T11:54:18.800Z,49.20
2023-03-28T11:57:04.031Z,48.00
2023-03-28T11:59:33.587Z,48.80
2023-03-28T12:02:14.749Z,47.60
2023-03-28T12:04:58.618Z,48.60
2023-03-28T12:07:48.791Z,47.20
2023-03-28T12:10:35.895Z,48.90
2023-03-28T12:13:33.838Z,49.20
2023-03-28T12:16:14.759Z,48.00
2023-03-28T12:18:51.698Z,49.00
2023-03-28T12:21:31.035Z,48.50
2023-03-28T12:24:13.542Z,48.20
2023-03-28T12:27:02.005Z,47.60
2023-03-28T12:29:38.925Z,48.00
2023-03-28T12:32:36.366Z,49.40
2023-03-28T12:35:06.824Z,48.50
2023-03-28T12:37:43.173Z,48.20
2023-03-28T12:40:13.352Z,48.00
2023-03-28T12:42:45.635Z,48.30
2023-03-28T12:45:27.749Z,47.10
2023-03-28T12:48:02.262Z,48.30
2023-03-28T12:50:52.234Z,48.90
2023-03-28T12:53:21.769Z,49.10
2023-03-28T12:55:49.651Z,48.00
2023-03-28T12:58:36.258Z,48.30
2023-03-28T13:01:09.002Z,48.90
2023-03-28T13:04:11.070Z,49.60
2023-03-28T13:06:53.172Z,48.80
2023-03-28T13:09:39.089Z,50.50
2023-03-28T13:12:36.566Z,48.70
2023-03-28T13:15:23.255Z,49.00
2023-03-28T13:18:20.014Z,49.30
2023-03-28T13:20:51.048Z,49.50
2023-03-28T13:23:21.160Z,49.40
2023-03-28T13:25:56.601Z,49.90
2023-03-28T13:28:31.082Z,49.60
2023-03-28T13:31:18.304Z,50.10
2023-03-28T13:33:53.937Z,49.90
2023-03-28T13:36:20.661Z,50.30
2023-03-28T13:38:51.166Z,51.10
2023-03-28T13:41:36.113Z,50.50
2023-03-28T13:44:13.051Z,48.90
2023-03-28T13:46:43.382Z,50.80
2023-03-28T13:49:10.249Z,49.20
2023-03-28T13:51:52.077Z,49.50
2023-03-28T13:54:19.216Z,47.90
2023-03-28T13:56:47.686Z,47.90
2023-03-28T13:59:35.754Z,47.60
2023-03-28T14:02:13.465Z,46.40
2023-03-28T14:04:40.133Z,47.50
2023-03-28T14:07:06.730Z,47.60
2023-03-28T14:09:35.231Z,46.90
2023-03-28T14:12:06.215Z,46.10
2023-03-28T14:14:41.843Z,47.50
2023-03-28T14:17:15.334Z,46.70
2023-03-28T14:19:49.564Z,45.80
2023-03-28T14:22:18.804Z,46.60
2023-03-28T14:24:51.752Z,46.10
2023-03-28T14:27:41.128Z,46.60
2023-03-28T14:30:37.839Z,46.80
2023-03-28T14:33:19.519Z,46.90
2023-03-28T14:36:01.580Z,47.10
2023-03-28T14:38:39.562Z,47.60
2023-03-28T14:41:17.196Z,47.70
2023-03-28T14:43:50.466Z,47.60
2023-03-28T14:46:21.338Z,47.90
2023-03-28T14:48:53.524Z,48.40
2023-03-28T14:51:23.930Z,48.30
2023-03-28T14:53:51.404Z,48.50
2023-03-28T14:56:23.608Z,48.40
2023-03-28T14:58:52.730Z,48.60
2023-03-28T15:01:23.093Z,48.40
2023-03-28T15:03:56.490Z,48.00
2023-03-28T15:06:23.985Z,48.40
2023-03-28T15:08:51.293Z,48.60
2023-03-28T15:11:26.158Z,48.40
2023-03-28T15:14:21.877Z,49.20
2023-03-28T15:16:48.723Z,48.60
2023-03-28T15:19:27.211Z,48.50
2023-03-28T15:22:01.180Z,50.10
2023-03-28T15:24:28.740Z,48.80
2023-03-28T15:27:01.479Z,49.30
2023-03-28T15:29:33.111Z,49.30
2023-03-28T15:32:06.296Z,49.40
2023-03-28T15:34:57.395Z,49.40
2023-03-28T15:37:26.316Z,49.60
2023-03-28T15:39:53.330Z,49.90
2023-03-28T15:42:20.233Z,50.60
2023-03-28T15:44:58.829Z,49.80
2023-03-28T15:47:30.126Z,50.10
2023-03-28T15:50:08.505Z,51.40
2023-03-28T15:52:35.790Z,51.00
2023-03-28T15:55:05.812Z,51.50
2023-03-28T15:57:32.810Z,52.20
2023-03-28T16:00:00.797Z,52.90
2023-03-28T16:02:27.569Z,53.40
2023-03-28T16:05:05.133Z,53.60
2023-03-28T16:07:46.311Z,55.40
2023-03-28T16:10:16.205Z,54.60
2023-03-28T16:12:43.684Z,54.50
2023-03-28T16:15:10.683Z,56.00
2023-03-28T16:17:37.387Z,56.70
2023-03-28T16:20:30.176Z,58.30
2023-03-28T16:22:56.905Z,57.80
2023-03-28T16:25:23.606Z,59.20
2023-03-28T16:27:50.220Z,59.30
2023-03-28T16:30:42.590Z,60.20
2023-03-28T16:33:09.447Z,61.80
2023-03-28T16:35:36.546Z,61.00
2023-03-28T16:38:03.497Z,62.30
2023-03-28T16:40:30.121Z,66.00
2023-03-28T16:42:56.843Z,65.70
2023-03-28T16:45:23.736Z,64.80
2023-03-28T16:47:50.968Z,63.70
2023-03-28T16:50:17.797Z,64.30
2023-03-28T16:52:44.453Z,64.60
2023-03-28T16:55:13.398Z,65.20
2023-03-28T16:57:40.901Z,64.60
2023-03-28T17:00:11.596Z,65.60
2023-03-28T17:02:38.364Z,65.10
2023-03-28T17:05:06.041Z,64.60
2023-03-28T17:07:32.692Z,64.80
2023-03-28T17:09:59.325Z,65.10
2023-03-28T17:12:26.216Z,65.30
2023-03-28T17:14:52.884Z,65.20
2023-03-28T17:17:20.061Z,65.60
2023-03-28T17:19:46.753Z,66.30
2023-03-28T17:22:13.415Z,66.50
2023-03-28T17:24:40.064Z,66.80
2023-03-28T17:27:07.132Z,68.40
2023-03-28T17:29:33.978Z,67.50
2023-03-28T17:32:02.812Z,68.10
2023-03-28T17:34:32.908Z,69.90
2023-03-28T17:37:00.591Z,70.90
2023-03-28T17:39:28.585Z,69.80
2023-03-28T17:41:55.221Z,69.20
2023-03-28T17:44:21.799Z,68.60
2023-03-28T17:46:48.616Z,68.90
2023-03-28T17:49:16.957Z,69.00
2023-03-28T17:51:44.999Z,69.20
2023-03-28T17:54:12.831Z,69.70
2023-03-28T17:56:39.886Z,69.70
2023-03-28T17:59:06.769Z,69.70
2023-03-28T18:01:33.771Z,70.10
2023-03-28T18:04:01.211Z,70.20
2023-03-28T18:06:27.956Z,70.20
2023-03-28T18:08:54.599Z,70.40
2023-03-28T18:11:22.872Z,70.70
2023-03-28T18:13:52.479Z,70.70
2023-03-28T18:16:19.283Z,71.10
2023-03-28T18:18:46.579Z,71.30
2023-03-28T18:21:13.309Z,71.20
2023-03-28T18:23:40.091Z,71.30
2023-03-28T18:26:06.850Z,71.20
2023-03-28T18:28:34.493Z,71.40
2023-03-28T18:31:12.699Z,71.80
2023-03-28T18:33:40.941Z,71.90
2023-03-28T18:36:08.154Z,72.20
2023-03-28T18:38:44.565Z,72.40
2023-03-28T18:41:12.732Z,72.50
2023-03-28T18:43:41.413Z,72.60
2023-03-28T18:46:09.155Z,72.50
2023-03-28T18:48:36.245Z,73.20
2023-03-28T18:51:03.956Z,72.70
2023-03-28T18:53:30.650Z,73.60
2023-03-28T18:55:57.399Z,74.20
2023-03-28T18:58:25.244Z,74.00
2023-03-28T19:00:59.961Z,74.10
2023-03-28T19:03:29.241Z,75.00
2023-03-28T19:05:57.485Z,74.60
2023-03-28T19:08:27.104Z,75.20
2023-03-28T19:10:55.602Z,75.50
2023-03-28T19:13:22.961Z,75.10
2023-03-28T19:15:59.074Z,75.40
2023-03-28T19:18:26.276Z,75.20
2023-03-28T19:20:57.064Z,77.10
2023-03-28T19:23:24.650Z,76.50
2023-03-28T19:25:51.424Z,76.50
2023-03-28T19:28:18.786Z,76.40
2023-03-28T19:30:46.224Z,76.30
2023-03-28T19:33:12.974Z,76.90
2023-03-28T19:35:41.051Z,76.50
2023-03-28T19:38:08.033Z,76.30
2023-03-28T19:40:34.705Z,76.50
2023-03-28T19:43:01.497Z,77.30
2023-03-28T19:45:29.041Z,78.10
2023-03-28T19:47:56.683Z,77.30
2023-03-28T19:50:23.908Z,77.80
2023-03-28T19:52:50.904Z,78.00
2023-03-28T19:55:18.236Z,78.70
2023-03-28T19:57:44.974Z,79.10
2023-03-28T20:00:12.106Z,78.80
2023-03-28T20:02:38.846Z,78.70
2023-03-28T20:05:06.116Z,78.30
2023-03-28T20:07:32.718Z,77.80
2023-03-28T20:09:59.760Z,78.30
2023-03-28T20:12:26.373Z,78.30
2023-03-28T20:14:54.446Z,78.20
2023-03-28T20:17:22.970Z,78.60
2023-03-28T20:19:51.524Z,78.60
2023-03-28T20:22:20.090Z,78.10
2023-03-28T20:24:48.758Z,78.00
2023-03-28T20:27:16.942Z,77.90
2023-03-28T20:29:43.907Z,78.20
2023-03-28T20:32:10.570Z,78.30
2023-03-28T20:34:37.205Z,77.90
2023-03-28T20:37:03.852Z,77.80
2023-03-28T20:39:34.121Z,77.60
2023-03-28T20:42:05.400Z,77.70
2023-03-28T20:44:37.955Z,78.10
2023-03-28T20:47:08.711Z,78.20
2023-03-28T20:49:36.091Z,77.90
2023-03-28T20:52:02.958Z,77.90
2023-03-28T20:54:29.801Z,77.70
2023-03-28T20:56:56.454Z,77.80
2023-03-28T20:59:24.494Z,78.00
2023-03-28T21:01:51.493Z,78.10
2023-03-28T21:04:18.196Z,78.00
2023-03-28T21:06:45.956Z,77.90
2023-03-28T21:09:17.799Z,78.00
2023-03-28T21:11:44.660Z,79.00
2023-03-28T21:14:13.540Z,78.00
2023-03-28T21:16:40.845Z,77.90
2023-03-28T21:19:08.107Z,77.90
2023-03-28T21:21:35.098Z,78.10
2023-03-28T21:24:02.967Z,78.60
2023-03-28T21:26:29.990Z,78.20
2023-03-28T21:28:56.813Z,77.70
2023-03-28T21:31:26.499Z,78.60
2023-03-28T21:33:56.754Z,78.30
2023-03-28T21:36:24.197Z,78.40
2023-03-28T21:38:50.857Z,79.00
2023-03-28T21:41:17.711Z,78.70
2023-03-28T21:43:44.476Z,78.10
2023-03-28T21:46:12.069Z,77.70
2023-03-28T21:48:39.249Z,78.10
2023-03-28T21:51:06.321Z,78.10
2023-03-28T21:53:36.015Z,78.10
2023-03-28T21:56:04.043Z,78.40
2023-03-28T21:58:32.659Z,78.20
2023-03-28T22:01:01.354Z,77.90
2023-03-28T22:03:28.862Z,78.40
2023-03-28T22:05:56.046Z,78.70
2023-03-28T22:08:23.338Z,78.90
2023-03-28T22:10:57.348Z,79.00
2023-03-28T22:13:24.224Z,78.60
2023-03-28T22:15:52.436Z,78.40
2023-03-28T22:18:20.262Z,78.70
2023-03-28T22:20:58.199Z,78.70
2023-03-28T22:23:25.659Z,78.50
2023-03-28T22:25:53.092Z,78.70
2023-03-28T22:28:24.089Z,78.50
2023-03-28T22:30:53.763Z,79.20
2023-03-28T22:33:20.402Z,79.30
2023-03-28T22:35:47.894Z,79.20
2023-03-28T22:38:14.607Z,79.30
2023-03-28T22:40:41.227Z,79.10
2023-03-28T22:43:08.082Z,79.40
2023-03-28T22:45:34.746Z,80.00
2023-03-28T22:48:03.299Z,79.70
2023-03-28T22:50:30.084Z,79.20
2023-03-28T22:52:57.072Z,79.30
2023-03-28T22:55:24.380Z,79.20
2023-03-28T22:57:52.681Z,80.20
2023-03-28T23:00:23.479Z,79.10
2023-03-28T23:02:51.724Z,78.80
2023-03-28T23:05:19.459Z,79.00
2023-03-28T23:07:46.495Z,78.80
2023-03-28T23:10:16.335Z,78.60
2023-03-28T23:12:43.674Z,78.40
2023-03-28T23:15:11.758Z,78.40
2023-03-28T23:17:38.756Z,78.90
2023-03-28T23:20:12.266Z,79.20
2023-03-28T23:22:40.862Z,78.70
2023-03-28T23:25:08.087Z,78.60
2023-03-28T23:27:34.917Z,78.50
2023-03-28T23:30:01.621Z,78.70
2023-03-28T23:32:28.795Z,78.50
2023-03-28T23:34:55.714Z,78.90
2023-03-28T23:37:26.035Z,78.50
2023-03-28T23:39:55.927Z,78.70
2023-03-28T23:42:24.342Z,78.50
2023-03-28T23:44:51.739Z,78.40
2023-03-28T23:47:20.261Z,78.40
2023-03-28T23:49:47.393Z,78.50
2023-03-28T23:52:14.308Z,78.60
2023-03-28T23:54:40.969Z,78.40
2023-03-28T23:57:08.870Z,78.70
2023-03-28T23:59:36.478Z,78.20
